TAF and METAR

Decoding for American and Canadian METARs and TAFs is not fully implemented.

Could not understand the following METAR

CYUX 030300Z AUTO 17010KT 9SM FEW032 M02/M02 A3031 RMK SLP267

TAF for Hall Beach Airport

TAF AMD CYUX 030213Z 0302/0313 16007KT P6SM SCT012 SCT040 TEMPO 0302/0305 P6SM -SN SCT007 BKN012 BKN040 FM030500 14007KT P6SM OVC012 TEMPO 0305/0313 2SM -SN BR OVC005 RMK FCST BASED ON AUTO OBS. NXT FCST BY 030700Z
Report created 3. jun 04:13

between 3. jun 04:00 - 3. jun 15:00

wind 7 knots from SSE (160°)